Time;durP1;ratioP1;P1;durP2;ratioP2;P2;SDS_P1;SDS_P2;PMS_P1;PMS_P2;Temp;Humidity;BMP_temperature;BMP_pressure;BME280_temperature;BME280_humidity;BME280_pressure;Samples;Min_cycle;Max_cycle;Signal;HPM_P1;HPM_P2
2024/02/23 00:01:55;;;;;;;22.40;16.35;;;;;;;7.49;100.00;92830.84;5094139;28;20423;-71
2024/02/23 00:04:22;;;;;;;26.48;16.70;;;;;;;7.39;100.00;92838.16;5088721;28;20055;-71
2024/02/23 00:06:50;;;;;;;24.35;17.00;;;;;;;7.39;100.00;92833.03;5091432;28;20051;-71
2024/02/23 00:09:17;;;;;;;26.42;17.17;;;;;;;7.42;100.00;92822.44;5089978;28;20138;-71
2024/02/23 00:11:45;;;;;;;22.23;16.73;;;;;;;7.54;100.00;92828.50;5089623;28;20488;-71
2024/02/23 00:14:12;;;;;;;23.45;16.23;;;;;;;7.51;100.00;92828.91;5092455;28;20046;-71
2024/02/23 00:16:40;;;;;;;21.50;15.50;;;;;;;7.51;100.00;92817.88;5090029;28;20052;-71
2024/02/23 00:19:08;;;;;;;26.13;16.67;;;;;;;7.58;100.00;92832.22;5090652;28;20044;-71
2024/02/23 00:21:35;;;;;;;26.13;17.42;;;;;;;7.61;100.00;92829.28;5092210;28;20058;-71
2024/02/23 00:24:04;;;;;;;23.83;16.83;;;;;;;7.60;100.00;92820.03;5101079;28;20811;-71
2024/02/23 00:26:32;;;;;;;25.67;16.40;;;;;;;7.69;100.00;92824.94;5088727;28;20043;-71
2024/02/23 00:28:59;;;;;;;22.48;16.45;;;;;;;7.67;100.00;92819.22;5094644;28;20055;-71
2024/02/23 00:31:26;;;;;;;22.88;16.60;;;;;;;7.68;100.00;92834.34;5096788;28;20052;-71
2024/02/23 00:33:53;;;;;;;26.10;17.42;;;;;;;7.74;100.00;92825.88;5092588;28;20056;-71
2024/02/23 00:36:19;;;;;;;22.02;16.40;;;;;;;7.79;100.00;92829.63;5094872;28;20050;-71
2024/02/23 00:38:46;;;;;;;23.63;15.35;;;;;;;7.68;100.00;92819.03;5091982;28;20054;-71
2024/02/23 00:41:15;;;;;;;22.48;15.40;;;;;;;7.69;100.00;92817.25;5090743;28;20041;-71
2024/02/23 00:43:42;;;;;;;22.20;15.70;;;;;;;7.65;100.00;92808.41;5092089;28;20066;-71
2024/02/23 00:46:10;;;;;;;23.10;15.43;;;;;;;7.56;100.00;92812.97;5091519;28;20072;-71
2024/02/23 00:48:37;;;;;;;21.73;15.82;;;;;;;7.59;100.00;92810.78;5092622;28;20051;-71
2024/02/23 00:51:04;;;;;;;20.52;15.55;;;;;;;7.60;100.00;92811.59;5101632;28;20052;-71
2024/02/23 00:53:32;;;;;;;22.60;16.33;;;;;;;7.58;100.00;92799.00;5091951;28;20068;-71
2024/02/23 00:56:00;;;;;;;21.23;15.48;;;;;;;7.64;100.00;92801.75;5098166;28;20074;-71
2024/02/23 00:58:28;;;;;;;21.60;15.75;;;;;;;7.59;100.00;92800.56;5090953;28;20414;-71
2024/02/23 01:00:56;;;;;;;23.35;17.35;;;;;;;7.60;100.00;92798.81;5104294;28;20404;-71
2024/02/23 01:03:23;;;;;;;23.02;16.05;;;;;;;7.59;100.00;92799.78;5099536;28;20062;-71
2024/02/23 01:05:49;;;;;;;22.15;15.88;;;;;;;7.60;100.00;92793.69;5090629;28;20054;-71
2024/02/23 01:08:16;;;;;;;22.73;16.50;;;;;;;7.55;100.00;92796.06;5094535;28;20047;-71
2024/02/23 01:10:44;;;;;;;25.25;15.98;;;;;;;7.49;100.00;92792.53;5091769;28;20055;-71
2024/02/23 01:13:10;;;;;;;21.58;15.95;;;;;;;7.49;100.00;92789.97;5096902;28;20050;-71
2024/02/23 01:15:39;;;;;;;21.33;16.10;;;;;;;7.46;100.00;92782.72;5094419;28;20488;-71
2024/02/23 01:18:07;;;;;;;23.08;16.58;;;;;;;7.48;100.00;92785.84;5089771;28;20052;-71
2024/02/23 01:20:34;;;;;;;23.63;15.40;;;;;;;7.43;100.00;92788.22;5091444;28;20051;-71
2024/02/23 01:23:01;;;;;;;22.42;15.40;;;;;;;7.49;100.00;92777.19;5101898;28;20057;-71
2024/02/23 01:25:28;;;;;;;23.40;14.95;;;;;;;7.42;100.00;92777.22;5094753;28;20044;-71
2024/02/23 01:27:55;;;;;;;22.67;15.38;;;;;;;7.42;100.00;92782.34;5093541;28;20052;-71
2024/02/23 01:30:22;;;;;;;21.10;15.00;;;;;;;7.33;100.00;92774.09;5097690;28;20054;-71
2024/02/23 01:32:50;;;;;;;22.08;14.13;;;;;;;7.41;100.00;92773.09;5097376;28;20051;-71
2024/02/23 01:35:17;;;;;;;21.27;15.13;;;;;;;7.43;100.00;92771.13;5092369;28;20500;-71
2024/02/23 01:37:44;;;;;;;20.67;14.75;;;;;;;7.34;100.00;92770.56;5096897;28;20055;-71
2024/02/23 01:40:12;;;;;;;21.23;14.48;;;;;;;7.45;100.00;92758.94;5096548;28;20535;-71
2024/02/23 01:42:39;;;;;;;18.85;14.27;;;;;;;7.43;100.00;92762.66;5092651;28;20060;-71
2024/02/23 01:45:07;;;;;;;24.50;14.68;;;;;;;7.46;100.00;92755.38;5090291;28;20044;-71
2024/02/23 01:47:34;;;;;;;20.20;14.40;;;;;;;7.53;100.00;92752.00;5089176;28;20068;-71
2024/02/23 01:50:03;;;;;;;22.48;14.63;;;;;;;7.47;100.00;92751.84;5097280;28;20052;-71
2024/02/23 01:52:30;;;;;;;18.38;13.20;;;;;;;7.37;100.00;92753.25;5090829;28;20558;-71
2024/02/23 01:54:58;;;;;;;21.23;13.15;;;;;;;7.39;100.00;92739.28;5094300;28;20044;-71
2024/02/23 01:57:25;;;;;;;18.02;12.75;;;;;;;7.45;100.00;92743.59;5097637;28;20048;-71
2024/02/23 01:59:52;;;;;;;17.92;13.10;;;;;;;7.49;100.00;92739.66;5104983;28;20058;-71
2024/02/23 02:02:20;;;;;;;19.30;13.90;;;;;;;7.45;100.00;92730.81;5098077;28;20054;-71
2024/02/23 02:04:47;;;;;;;19.58;13.40;;;;;;;7.47;100.00;92736.53;5095533;28;20423;-71
2024/02/23 02:07:15;;;;;;;19.50;13.13;;;;;;;7.46;99.95;92721.38;5090500;28;20048;-71
2024/02/23 02:09:42;;;;;;;18.95;12.90;;;;;;;7.55;99.85;92735.50;5098062;28;20052;-73
2024/02/23 02:12:09;;;;;;;20.60;13.40;;;;;;;7.52;99.47;92733.34;5093367;28;20043;-71
2024/02/23 02:14:36;;;;;;;20.50;13.38;;;;;;;7.51;100.00;92734.34;5091916;28;20134;-71
2024/02/23 02:17:03;;;;;;;19.52;13.15;;;;;;;7.48;100.00;92738.09;5089272;28;20044;-71
2024/02/23 02:19:30;;;;;;;21.75;13.40;;;;;;;7.48;100.00;92734.75;5100673;28;20506;-71
2024/02/23 02:21:58;;;;;;;17.92;12.50;;;;;;;7.56;99.85;92731.19;5095211;28;20139;-71
2024/02/23 02:24:26;;;;;;;20.02;13.65;;;;;;;7.52;99.85;92732.56;5099269;28;20044;-71
2024/02/23 02:26:53;;;;;;;19.63;13.00;;;;;;;7.45;99.96;92728.25;5097817;28;20044;-70
2024/02/23 02:29:20;;;;;;;19.17;12.43;;;;;;;7.54;99.16;92726.25;5090694;28;20062;-71
2024/02/23 02:31:47;;;;;;;17.98;12.98;;;;;;;7.43;99.16;92709.81;5092561;28;20056;-71
2024/02/23 02:34:14;;;;;;;18.17;12.60;;;;;;;7.50;98.24;92719.97;5099078;28;20115;-71
2024/02/23 02:36:41;;;;;;;19.40;12.77;;;;;;;7.48;99.33;92722.75;5091057;28;20044;-71
2024/02/23 02:39:08;;;;;;;18.08;11.63;;;;;;;7.53;99.17;92737.47;5095799;28;20081;-71
2024/02/23 02:41:36;;;;;;;20.00;12.45;;;;;;;7.55;98.69;92729.63;5090281;28;20044;-71
2024/02/23 02:44:03;;;;;;;19.65;13.50;;;;;;;7.61;98.58;92731.34;5089090;28;20055;-72
2024/02/23 02:46:30;;;;;;;17.92;12.13;;;;;;;7.57;98.42;92725.88;5092170;28;20138;-71
2024/02/23 02:48:57;;;;;;;20.00;12.85;;;;;;;7.53;99.11;92734.13;5092755;28;20047;-71
2024/02/23 02:51:25;;;;;;;20.02;13.27;;;;;;;7.56;99.07;92731.19;5096966;28;20054;-71
2024/02/23 02:53:52;;;;;;;20.48;12.48;;;;;;;7.56;99.04;92726.84;5090183;28;20066;-71
2024/02/23 02:56:18;;;;;;;19.73;13.10;;;;;;;7.51;99.05;92736.91;5087580;28;20044;-71
2024/02/23 02:58:47;;;;;;;18.95;12.32;;;;;;;7.46;99.09;92729.06;5092789;28;20052;-71
2024/02/23 03:01:14;;;;;;;17.83;11.38;;;;;;;7.51;99.48;92734.34;5094596;28;20044;-71
2024/02/23 03:03:41;;;;;;;16.85;12.02;;;;;;;7.51;99.57;92731.78;5088045;28;20411;-70
2024/02/23 03:06:08;;;;;;;17.98;12.73;;;;;;;7.49;99.21;92733.75;5090833;28;20052;-70
2024/02/23 03:08:35;;;;;;;18.23;12.50;;;;;;;7.47;99.78;92728.06;5089114;28;20050;-70
2024/02/23 03:11:02;;;;;;;17.83;11.70;;;;;;;7.44;99.84;92723.34;5089859;28;20487;-71
2024/02/23 03:13:29;;;;;;;19.05;12.43;;;;;;;7.29;100.00;92698.84;5095301;28;20046;-71
2024/02/23 03:15:57;;;;;;;16.55;11.98;;;;;;;7.51;100.00;92738.66;5090045;28;20077;-70
2024/02/23 03:18:24;;;;;;;17.85;12.10;;;;;;;7.48;99.67;92730.44;5091327;28;20082;-70
2024/02/23 03:20:51;;;;;;;17.55;12.23;;;;;;;7.50;99.71;92735.31;5089249;28;20047;-70
2024/02/23 03:23:18;;;;;;;16.30;12.43;;;;;;;7.37;99.54;92727.69;5096476;28;20062;-70
2024/02/23 03:25:45;;;;;;;17.10;11.57;;;;;;;7.49;99.35;92732.00;5087342;28;20488;-70
2024/02/23 03:28:11;;;;;;;16.58;11.85;;;;;;;7.46;99.49;92734.94;5091374;28;20050;-69
2024/02/23 03:30:38;;;;;;;15.77;11.68;;;;;;;7.29;99.82;92721.03;5088684;28;20558;-71
2024/02/23 03:33:07;;;;;;;16.77;11.43;;;;;;;7.48;98.96;92735.53;5088159;28;20048;-71
2024/02/23 03:35:34;;;;;;;17.55;11.90;;;;;;;7.57;98.52;92735.28;5091169;28;20044;-70
2024/02/23 03:38:01;;;;;;;17.60;10.50;;;;;;;7.48;98.66;92729.63;5087493;28;20058;-70
2024/02/23 03:40:27;;;;;;;17.60;10.90;;;;;;;7.46;98.96;92734.94;5091341;28;20040;-71
2024/02/23 03:42:54;;;;;;;18.15;12.15;;;;;;;7.47;99.52;92738.28;5091391;28;20074;-70
2024/02/23 03:45:21;;;;;;;18.02;10.90;;;;;;;7.57;98.11;92737.84;5086980;28;20044;-71
2024/02/23 03:47:48;;;;;;;16.60;11.75;;;;;;;7.55;98.70;92732.94;5089497;28;20093;-70
2024/02/23 03:50:17;;;;;;;19.67;13.18;;;;;;;7.58;98.36;92734.31;5091771;28;20052;-70
2024/02/23 03:52:43;;;;;;;15.85;11.13;;;;;;;7.54;98.11;92739.03;5094849;28;20047;-70
2024/02/23 03:55:11;;;;;;;18.38;11.48;;;;;;;7.57;98.25;92737.84;5087946;28;20048;-70
2024/02/23 03:57:37;;;;;;;17.50;11.73;;;;;;;7.59;97.62;92739.22;5087860;28;20044;-70
2024/02/23 04:00:07;;;;;;;16.50;11.25;;;;;;;7.53;98.21;92739.22;5087052;28;20127;-70
2024/02/23 04:02:34;;;;;;;16.23;11.40;;;;;;;7.37;98.86;92732.81;5090287;28;20482;-70
2024/02/23 04:05:02;;;;;;;16.38;10.98;;;;;;;7.46;98.79;92745.16;5089765;28;20437;-71
2024/02/23 04:07:30;;;;;;;18.58;11.27;;;;;;;7.46;99.04;92745.16;5092301;28;20060;-70
2024/02/23 04:09:57;;;;;;;16.75;11.43;;;;;;;7.47;98.21;92746.75;5088734;28;20044;-71
2024/02/23 04:12:24;;;;;;;18.10;11.18;;;;;;;7.46;97.96;92734.16;5091174;28;20062;-71
2024/02/23 04:14:51;;;;;;;17.02;11.15;;;;;;;7.52;97.94;92743.56;5094689;28;20435;-71
2024/02/23 04:17:18;;;;;;;17.67;11.85;;;;;;;7.55;97.93;92742.38;5094070;28;20052;-71
2024/02/23 04:19:45;;;;;;;16.63;11.38;;;;;;;7.63;97.10;92747.25;5090627;28;20638;-71
2024/02/23 04:22:12;;;;;;;17.35;11.70;;;;;;;7.56;96.98;92741.41;5095045;28;20093;-71
2024/02/23 04:24:42;;;;;;;16.75;11.60;;;;;;;7.33;97.85;92720.44;5092722;28;20048;-71
2024/02/23 04:27:09;;;;;;;19.67;11.88;;;;;;;7.47;98.74;92740.84;5094060;28;20039;-71
2024/02/23 04:29:36;;;;;;;17.77;12.45;;;;;;;7.40;99.19;92734.97;5100634;28;20048;-71
2024/02/23 04:32:03;;;;;;;15.95;11.63;;;;;;;7.27;99.37;92726.34;5092986;28;20044;-71
2024/02/23 04:34:30;;;;;;;17.50;11.65;;;;;;;7.19;99.90;92717.13;5091445;28;20780;-71
2024/02/23 04:36:57;;;;;;;16.02;11.45;;;;;;;7.20;100.00;92728.13;5093744;28;20476;-71
2024/02/23 04:39:24;;;;;;;19.30;11.52;;;;;;;7.29;100.00;92744.81;5091869;28;20051;-71
2024/02/23 04:41:53;;;;;;;19.30;11.95;;;;;;;7.28;100.00;92740.72;5095032;28;20167;-71
2024/02/23 04:44:20;;;;;;;17.25;11.55;;;;;;;7.17;100.00;92742.09;5098459;28;20073;-70
2024/02/23 04:46:48;;;;;;;15.90;11.88;;;;;;;7.18;100.00;92745.44;5092130;28;20043;-71
2024/02/23 04:49:15;;;;;;;19.63;12.95;;;;;;;7.11;100.00;92742.09;5093891;28;20040;-71
2024/02/23 04:51:42;;;;;;;17.25;12.70;;;;;;;7.15;100.00;92743.28;5101320;28;20048;-71
2024/02/23 04:54:09;;;;;;;17.48;12.00;;;;;;;7.17;100.00;92746.44;5093020;28;20044;-71
2024/02/23 04:56:36;;;;;;;18.85;12.27;;;;;;;7.18;100.00;92743.66;5090768;28;20048;-71
2024/02/23 04:59:04;;;;;;;17.27;12.68;;;;;;;7.17;100.00;92736.97;5090481;28;20044;-71
2024/02/23 05:01:36;;;;;;;17.13;11.55;;;;;;;7.14;100.00;92750.16;5097056;28;20067;-71
2024/02/23 05:04:04;;;;;;;16.98;12.20;;;;;;;7.18;100.00;92751.31;5090333;28;20078;-71
2024/02/23 05:06:31;;;;;;;18.10;11.60;;;;;;;7.15;100.00;92741.53;5096363;28;20044;-71
2024/02/23 05:08:58;;;;;;;15.52;10.98;;;;;;;7.22;100.00;92754.25;5095720;28;20048;-71
2024/02/23 05:11:25;;;;;;;16.55;11.90;;;;;;;7.25;100.00;92758.19;5090719;28;20048;-71
2024/02/23 05:13:51;;;;;;;15.43;11.00;;;;;;;7.22;100.00;92761.91;5092456;28;20381;-72
2024/02/23 05:16:20;;;;;;;19.02;12.20;;;;;;;7.27;100.00;92758.78;5096855;28;20054;-72
2024/02/23 05:18:47;;;;;;;15.50;11.70;;;;;;;7.27;99.67;92751.88;5091249;28;20397;-72
2024/02/23 05:21:15;;;;;;;16.05;11.68;;;;;;;7.15;99.14;92751.72;5091996;28;20404;-72
2024/02/23 05:23:42;;;;;;;22.60;14.93;;;;;;;7.34;98.87;92762.91;5094354;28;20066;-72
2024/02/23 05:26:10;;;;;;;18.95;13.57;;;;;;;7.20;99.37;92762.13;5089580;28;20048;-72
2024/02/23 05:28:37;;;;;;;17.42;11.27;;;;;;;7.16;100.00;92760.97;5092723;28;20048;-72
2024/02/23 05:31:05;;;;;;;15.57;11.20;;;;;;;7.12;99.97;92753.91;5090505;28;20048;-73
2024/02/23 05:33:33;;;;;;;17.63;12.20;;;;;;;7.24;99.99;92757.41;5091559;28;20055;-73
2024/02/23 05:36:00;;;;;;;17.23;12.10;;;;;;;7.20;100.00;92758.78;5093283;28;20040;-72
2024/02/23 05:38:27;;;;;;;20.52;13.38;;;;;;;7.16;100.00;92757.63;5096971;28;20074;-71
2024/02/23 05:40:54;;;;;;;19.63;13.32;;;;;;;7.18;99.95;92761.53;5089305;28;20054;-71
2024/02/23 05:43:21;;;;;;;20.70;14.45;;;;;;;7.17;99.78;92762.53;5090738;28;20046;-70
2024/02/23 05:45:48;;;;;;;20.60;12.65;;;;;;;7.12;100.00;92753.91;5094609;28;20052;-70
2024/02/23 05:48:14;;;;;;;19.52;12.65;;;;;;;7.07;100.00;92757.84;5100409;28;20035;-70
2024/02/23 05:50:43;;;;;;;20.23;12.52;;;;;;;7.11;100.00;92760.78;5093821;28;20044;-70
2024/02/23 05:53:10;;;;;;;19.77;13.57;;;;;;;7.15;100.00;92769.63;5090768;28;20050;-70
2024/02/23 05:55:37;;;;;;;20.00;13.63;;;;;;;7.09;100.00;92767.84;5093523;28;20872;-71
2024/02/23 05:58:05;;;;;;;17.63;12.57;;;;;;;7.03;100.00;92779.63;5089630;28;20043;-71
2024/02/23 06:00:32;;;;;;;23.45;14.65;;;;;;;7.13;100.00;92776.66;5092037;28;20583;-70
2024/02/23 06:02:59;;;;;;;20.75;14.82;;;;;;;7.01;100.00;92768.06;5098219;28;20100;-71
2024/02/23 06:05:25;;;;;;;21.85;14.57;;;;;;;7.05;100.00;92787.88;5092360;28;20070;-71
2024/02/23 06:07:54;;;;;;;22.83;14.88;;;;;;;7.04;100.00;92775.34;5091526;28;20058;-71
2024/02/23 06:10:21;;;;;;;26.48;16.90;;;;;;;7.11;100.00;92781.22;5089647;28;20512;-71
2024/02/23 06:12:49;;;;;;;27.67;17.98;;;;;;;7.15;100.00;92779.84;5089877;28;20058;-71
2024/02/23 06:15:16;;;;;;;26.80;16.33;;;;;;;7.18;100.00;92776.09;5091017;28;20056;-71
2024/02/23 06:17:44;;;;;;;26.88;17.50;;;;;;;7.31;100.00;92777.84;5094569;28;20040;-70
2024/02/23 06:20:12;;;;;;;23.65;14.77;;;;;;;7.40;100.00;92789.41;5088974;28;20048;-70
2024/02/23 06:22:39;;;;;;;20.63;13.93;;;;;;;7.49;100.00;92787.41;5091861;28;20043;-71
2024/02/23 06:25:08;;;;;;;22.50;13.68;;;;;;;7.53;100.00;92786.03;5091607;28;20052;-71
2024/02/23 06:27:36;;;;;;;18.58;12.75;;;;;;;7.68;100.00;92787.56;5091199;28;20072;-71
2024/02/23 06:30:04;;;;;;;19.73;12.98;;;;;;;7.77;100.00;92788.91;5091636;28;20058;-70
2024/02/23 06:32:31;;;;;;;20.15;12.00;;;;;;;7.90;100.00;92785.50;5094103;28;20054;-70
2024/02/23 06:34:57;;;;;;;21.95;12.57;;;;;;;8.04;100.00;92783.69;5095085;28;20052;-70
2024/02/23 06:37:24;;;;;;;20.35;12.52;;;;;;;8.10;100.00;92787.22;5089795;28;20048;-71
2024/02/23 06:39:54;;;;;;;17.40;11.30;;;;;;;8.02;100.00;92760.09;5088004;28;20074;-71
2024/02/23 06:42:22;;;;;;;16.58;10.82;;;;;;;8.32;99.62;92794.56;5093212;28;20058;-71
2024/02/23 06:44:50;;;;;;;16.05;11.27;;;;;;;8.40;98.87;92795.13;5093675;28;20424;-70
2024/02/23 06:47:17;;;;;;;20.35;12.32;;;;;;;8.46;98.67;92792.72;5087910;28;20052;-70
2024/02/23 06:49:44;;;;;;;18.48;11.48;;;;;;;8.64;98.51;92797.94;5096679;28;20079;-72
2024/02/23 06:52:11;;;;;;;18.15;11.82;;;;;;;8.80;97.24;92795.88;5089088;28;20109;-72
2024/02/23 06:54:38;;;;;;;19.63;11.80;;;;;;;8.90;96.06;92797.97;5092403;28;20047;-72
2024/02/23 06:57:05;;;;;;;16.50;11.38;;;;;;;9.03;95.14;92800.41;5090831;28;20044;-73
2024/02/23 06:59:33;;;;;;;16.92;10.82;;;;;;;9.21;93.63;92802.22;5089208;28;20051;-73
2024/02/23 07:02:00;;;;;;;15.68;10.88;;;;;;;9.33;93.11;92799.75;5090568;28;20047;-73
2024/02/23 07:27:16;;;;;;;13.23;8.45;;;;;;;10.53;85.76;92785.78;5091190;27;20385;-71
2024/02/23 07:29:43;;;;;;;14.90;9.02;;;;;;;10.55;85.15;92785.53;5093780;28;20044;-70
2024/02/23 07:32:10;;;;;;;13.18;8.30;;;;;;;10.54;85.00;92786.53;5086311;28;20501;-70
2024/02/23 07:34:37;;;;;;;12.25;8.55;;;;;;;10.68;84.53;92792.25;5087198;28;20098;-71
2024/02/23 07:37:04;;;;;;;11.85;8.32;;;;;;;10.59;83.85;92789.22;5093329;28;20483;-71
2024/02/23 07:39:33;;;;;;;13.68;8.10;;;;;;;10.77;84.18;92787.59;5093257;28;20810;-71
2024/02/23 07:42:01;;;;;;;11.40;8.18;;;;;;;10.94;82.35;92792.88;5095620;28;20072;-71
2024/02/23 07:44:30;;;;;;;12.20;7.78;;;;;;;10.73;81.79;92760.78;5087345;28;20386;-70
2024/02/23 07:46:58;;;;;;;11.25;8.20;;;;;;;10.99;82.40;92784.50;5086621;28;20058;-71
2024/02/23 07:49:25;;;;;;;12.50;7.95;;;;;;;11.06;82.38;92780.03;5088741;28;20098;-71
2024/02/23 07:51:52;;;;;;;10.23;7.65;;;;;;;11.17;81.69;92784.41;5088917;28;20058;-71
2024/02/23 07:54:19;;;;;;;10.98;7.53;;;;;;;11.32;80.35;92783.94;5087714;28;20044;-71
2024/02/23 07:56:46;;;;;;;11.27;7.80;;;;;;;11.55;79.58;92786.72;5085439;28;20055;-71
2024/02/23 07:59:13;;;;;;;10.73;7.53;;;;;;;11.45;79.47;92759.78;5089369;28;20416;-71
2024/02/23 08:01:41;;;;;;;10.68;7.43;;;;;;;11.65;78.33;92793.84;5087845;28;20086;-71
2024/02/23 08:04:08;;;;;;;8.95;5.97;;;;;;;11.76;77.81;92795.66;5089724;28;20064;-71
2024/02/23 08:06:35;;;;;;;9.60;6.53;;;;;;;11.83;76.80;92796.31;5090839;28;20049;-71
2024/02/23 08:09:02;;;;;;;11.82;7.20;;;;;;;12.02;76.88;92801.28;5087165;28;20087;-71
2024/02/23 08:11:29;;;;;;;9.27;6.18;;;;;;;12.08;74.39;92792.66;5088564;28;20048;-71
2024/02/23 08:13:56;;;;;;;8.20;6.15;;;;;;;12.16;75.51;92787.16;5089586;28;20048;-71
2024/02/23 08:16:23;;;;;;;8.75;6.00;;;;;;;12.09;74.96;92796.03;5084142;28;20052;-71
2024/02/23 08:18:51;;;;;;;8.65;5.35;;;;;;;12.24;74.91;92800.69;5085762;28;20070;-71
2024/02/23 08:21:18;;;;;;;10.82;6.25;;;;;;;12.26;73.74;92796.88;5088805;28;20054;-71
2024/02/23 08:23:45;;;;;;;11.35;5.38;;;;;;;12.25;73.00;92786.78;5086184;28;20522;-71
2024/02/23 08:26:12;;;;;;;8.20;4.80;;;;;;;12.20;73.53;92795.22;5089537;28;20048;-71
2024/02/23 08:28:39;;;;;;;7.03;5.10;;;;;;;12.18;72.98;92799.81;5071593;28;20091;-71
2024/02/23 08:31:06;;;;;;;6.22;4.20;;;;;;;12.13;71.71;92766.25;5071252;28;20044;-71
2024/02/23 08:33:33;;;;;;;7.53;5.10;;;;;;;12.31;71.96;92787.69;5072596;28;20070;-71
2024/02/23 08:36:04;;;;;;;7.25;4.70;;;;;;;12.34;71.47;92792.34;5071002;28;20051;-71
2024/02/23 08:38:32;;;;;;;9.35;4.65;;;;;;;12.41;71.29;92803.31;5072103;28;20095;-71
2024/02/23 08:40:59;;;;;;;7.25;4.72;;;;;;;12.59;72.09;92797.16;5071363;28;20044;-71
2024/02/23 08:43:26;;;;;;;9.18;5.03;;;;;;;12.68;70.79;92797.56;5070945;28;20059;-71
2024/02/23 08:45:53;;;;;;;10.57;5.03;;;;;;;12.68;70.51;92790.63;5070255;28;20054;-71
2024/02/23 08:48:20;;;;;;;7.07;3.90;;;;;;;12.66;70.73;92791.88;5071093;28;20054;-70
2024/02/23 08:50:47;;;;;;;6.97;4.35;;;;;;;12.54;70.53;92794.50;5071947;28;20049;-70
2024/02/23 08:53:16;;;;;;;6.40;4.45;;;;;;;12.58;71.82;92800.75;5074679;28;20062;-71
2024/02/23 08:55:43;;;;;;;7.30;4.22;;;;;;;12.62;72.15;92801.88;5077193;28;20060;-70
2024/02/23 08:58:10;;;;;;;7.18;4.15;;;;;;;12.78;71.82;92800.31;5071784;28;20054;-71
2024/02/23 09:00:38;;;;;;;8.68;4.30;;;;;;;13.04;70.55;92805.09;5077686;28;20049;-71
2024/02/23 09:03:05;;;;;;;7.63;4.60;;;;;;;13.10;70.07;92793.84;5071059;28;20084;-71
2024/02/23 09:05:32;;;;;;;6.47;3.80;;;;;;;13.14;69.80;92807.81;5071650;28;20560;-71
2024/02/23 09:07:59;;;;;;;8.55;4.25;;;;;;;13.21;69.70;92797.34;5073406;28;20052;-71
2024/02/23 09:10:27;;;;;;;12.32;4.78;;;;;;;13.45;70.52;92797.97;5071407;28;20044;-71
2024/02/23 09:12:54;;;;;;;7.72;4.30;;;;;;;13.46;68.19;92799.53;5072101;28;20052;-71
2024/02/23 09:15:21;;;;;;;4.97;3.10;;;;;;;13.52;68.68;92792.63;5071437;28;20059;-71
2024/02/23 09:17:48;;;;;;;6.22;3.50;;;;;;;13.66;67.69;92794.88;5070650;28;20054;-71
2024/02/23 09:20:15;;;;;;;7.07;3.20;;;;;;;13.68;67.87;92791.06;5073017;28;20150;-71
2024/02/23 09:22:42;;;;;;;6.78;3.30;;;;;;;13.91;67.14;92797.00;5072931;28;20052;-71
2024/02/23 09:25:09;;;;;;;7.65;3.13;;;;;;;13.96;66.38;92788.53;5073980;28;20420;-71
2024/02/23 09:27:43;;;;;;;7.47;2.90;;;;;;;13.93;65.27;92800.13;5070211;28;20048;-71
2024/02/23 09:30:11;;;;;;;7.15;3.05;;;;;;;14.07;66.21;92802.34;5070735;28;20572;-71
2024/02/23 09:32:38;;;;;;;5.90;3.20;;;;;;;13.75;66.00;92806.38;5079083;28;20831;-71
2024/02/23 09:35:06;;;;;;;5.78;3.00;;;;;;;13.55;66.57;92802.50;5075057;28;20048;-71
2024/02/23 09:37:33;;;;;;;4.93;3.08;;;;;;;13.44;66.08;92787.88;5072949;28;20048;-71
2024/02/23 09:40:00;;;;;;;5.70;2.35;;;;;;;13.14;66.52;92801.91;5069258;28;20469;-71
2024/02/23 09:42:32;;;;;;;4.50;2.75;;;;;;;13.24;68.33;92802.03;5071683;28;20044;-71
2024/02/23 09:45:01;;;;;;;6.30;3.30;;;;;;;13.37;67.54;92798.34;5070480;28;20513;-71
2024/02/23 09:47:29;;;;;;;5.55;2.85;;;;;;;13.51;66.33;92792.91;5069810;28;20047;-71
2024/02/23 09:49:56;;;;;;;5.68;2.78;;;;;;;13.65;65.97;92790.75;5069356;28;20255;-71
2024/02/23 09:52:23;;;;;;;7.45;3.25;;;;;;;13.84;65.03;92786.09;5070051;28;20051;-71
2024/02/23 09:54:50;;;;;;;5.38;3.10;;;;;;;13.98;64.79;92782.09;5073375;28;20059;-71
2024/02/23 09:57:18;;;;;;;5.75;2.95;;;;;;;14.07;64.84;92782.47;5077941;28;20060;-71
2024/02/23 09:59:46;;;;;;;5.10;2.45;;;;;;;14.14;63.33;92777.13;5070420;28;20052;-71
2024/02/23 10:02:16;;;;;;;4.35;2.70;;;;;;;14.18;63.17;92774.81;5072802;28;20047;-71
2024/02/23 10:04:44;;;;;;;10.43;2.92;;;;;;;14.28;62.44;92769.78;5071294;28;20051;-71
2024/02/23 10:07:11;;;;;;;5.57;2.60;;;;;;;14.33;63.70;92769.03;5070973;28;20049;-71
2024/02/23 10:09:38;;;;;;;5.20;2.42;;;;;;;14.55;63.90;92776.75;5068796;28;20054;-71
2024/02/23 10:12:06;;;;;;;7.60;3.33;;;;;;;14.59;62.27;92785.56;5069038;28;20428;-71
2024/02/23 10:14:33;;;;;;;7.55;2.85;;;;;;;14.48;60.87;92776.94;5068230;28;20070;-71
2024/02/23 10:17:01;;;;;;;7.10;3.05;;;;;;;14.34;61.67;92781.72;5068212;28;20064;-71
2024/02/23 10:19:30;;;;;;;4.43;2.40;;;;;;;14.13;61.73;92775.56;5072491;28;20048;-71
2024/02/23 10:21:58;;;;;;;3.60;2.10;;;;;;;14.08;61.44;92778.09;5071342;28;20519;-71
2024/02/23 10:24:25;;;;;;;3.80;2.70;;;;;;;14.23;62.00;92780.03;5071598;28;20109;-71
2024/02/23 10:26:52;;;;;;;4.90;2.80;;;;;;;14.24;61.34;92774.66;5070950;28;20063;-71
2024/02/23 10:29:19;;;;;;;4.90;2.88;;;;;;;14.23;60.90;92762.75;5071168;28;20052;-71
2024/02/23 10:31:49;;;;;;;5.53;2.95;;;;;;;14.26;61.55;92762.25;5072277;28;20518;-71
2024/02/23 10:34:20;;;;;;;5.88;3.13;;;;;;;14.24;62.19;92742.84;5073238;28;20047;-71
2024/02/23 10:36:50;;;;;;;7.57;2.97;;;;;;;14.39;62.19;92749.97;5070243;28;20052;-71
2024/02/23 10:39:19;;;;;;;3.75;2.25;;;;;;;14.52;60.48;92759.13;5074481;28;20063;-71
2024/02/23 11:02:20;;;;;;;4.63;2.60;;;;;;;14.56;59.44;92726.59;5089269;27;20464;-72
2024/02/23 11:04:50;;;;;;;3.75;2.38;;;;;;;14.51;59.88;92717.03;5087200;28;20172;-72
2024/02/23 11:07:20;;;;;;;3.67;2.35;;;;;;;14.46;60.30;92719.56;5094746;28;20051;-72
2024/02/23 11:09:50;;;;;;;5.50;2.55;;;;;;;14.43;59.93;92710.50;5088776;28;20083;-72
2024/02/23 11:12:25;;;;;;;7.95;2.90;;;;;;;14.43;59.92;92699.38;5093616;28;20059;-72
2024/02/23 11:14:52;;;;;;;5.95;2.78;;;;;;;14.33;60.34;92705.22;5095170;28;20417;-72
2024/02/23 11:17:21;;;;;;;6.20;3.40;;;;;;;14.50;60.52;92704.34;5100024;28;20161;-71
2024/02/23 11:19:51;;;;;;;4.82;2.85;;;;;;;14.49;60.71;92695.03;5085886;28;20127;-72
2024/02/23 11:22:26;;;;;;;5.60;2.80;;;;;;;14.72;59.64;92708.66;5086900;28;20048;-72
2024/02/23 11:24:53;;;;;;;4.65;2.70;;;;;;;14.86;59.08;92706.44;5084167;28;20048;-72
2024/02/23 11:27:20;;;;;;;4.80;2.67;;;;;;;14.60;59.86;92703.63;5086465;28;20051;-72
2024/02/23 11:29:48;;;;;;;8.07;3.17;;;;;;;14.76;60.37;92700.16;5095703;28;20407;-72
2024/02/23 11:32:17;;;;;;;4.82;2.20;;;;;;;14.89;58.82;92693.00;5096182;28;20075;-72
2024/02/23 11:34:55;;;;;;;3.13;2.10;;;;;;;15.23;57.44;92696.06;5091270;28;20048;-72
2024/02/23 11:37:22;;;;;;;3.38;2.30;;;;;;;15.21;57.56;92698.13;5090094;28;20044;-72
2024/02/23 11:39:50;;;;;;;3.10;2.20;;;;;;;14.98;56.27;92695.91;5086061;28;20051;-72
2024/02/23 11:42:19;;;;;;;4.15;2.53;;;;;;;14.90;57.42;92689.41;5088642;28;20056;-72
2024/02/23 11:44:46;;;;;;;5.93;2.42;;;;;;;14.88;57.04;92699.22;5094253;28;20067;-72
2024/02/23 11:47:13;;;;;;;2.95;1.80;;;;;;;14.96;56.58;92698.75;5098912;28;20054;-72
2024/02/23 11:49:40;;;;;;;3.53;1.70;;;;;;;14.95;55.71;92690.22;5086652;28;20052;-72
2024/02/23 11:52:08;;;;;;;4.90;2.20;;;;;;;14.96;57.12;92698.75;5087295;28;20044;-72
2024/02/23 11:54:35;;;;;;;7.18;2.50;;;;;;;15.04;57.16;92682.00;5086070;28;20131;-72
2024/02/23 11:57:03;;;;;;;5.75;3.20;;;;;;;14.99;57.28;92687.13;5098476;28;20066;-72
2024/02/23 11:59:29;;;;;;;3.65;2.13;;;;;;;15.21;55.67;92689.56;5087849;28;20053;-72
2024/02/23 12:01:56;;;;;;;4.53;2.03;;;;;;;15.36;56.48;92691.44;5079780;28;20056;-72
2024/02/23 12:04:23;;;;;;;3.60;2.45;;;;;;;15.47;56.71;92693.06;5072741;28;20075;-72
2024/02/23 12:06:50;;;;;;;4.72;2.30;;;;;;;15.46;55.71;92675.22;5072078;28;20384;-72
2024/02/23 12:09:19;;;;;;;4.55;1.85;;;;;;;15.60;54.79;92688.47;5070206;28;20044;-72